Main page
METAR-TAF:

METAR-TAF

Airports :

Pristina International Airport

Pristina, Kosovo

latitude: 42-34-27N, longitude: 21-02-09E, elevation: 545 m

Current weather observation

The report was made 33 minutes ago, at 07:00 UTC
Wind 2 kt from variable directions
Temperature 23°C
Humidity 57%
Pressure 1016 hPa
Visibility 10 km or more
no clouds below 1500 m and no cumulonimbus

METAR: BKPR 300700Z VRB02KT CAVOK 23/14 Q1016 NOSIG

Time: 09:33 (07:33 UTC)

Forecast

The report was made 2 hours and 3 minutes ago, at 05:30 UTC
Forecast valid from 30 at 06 UTC to 31 at 06 UTC
Wind 8 kt from the West/Southwest
Visibility 10 km or more
no clouds below 1500 m and no cumulonimbus
Temporary
from 30 at 10 UTC to 30 at 21 UTC
Wind 18 kt from the West/Southwest

TAF: BKPR 300530Z 3006/3106 25008KT CAVOK TEMPO 3010/3021 25018KT

Weather observations and forecasts of more than 4000 airports (METAR and TAF reports).

The available stations are represented by yellow and red dots on the map.

Hover mouse over dot to see the name of the station.

Then click to see weather observations and forecasts.

To change the map : click on the green buttons with a black cross to zoom in, on the green button with a dash to zoom out, or on the green arrows for adjacent maps.


METAR-TAF: